Terminal Aerodrome Forecast
Issued by NWS

Home | Current Version | Previous Version | Text Only | Print | Product List | Glossary On
Versions: 1 2 3 4 5 6 7 8 9 10 11 12 13 14 15 16 17 18 19 20 21 22 23 24
328
FTUS43 KDLH 091125
TAFBRD
TAF
KBRD 091125Z 0912/1012 33010KT P6SM SCT015
     FM091500 34014KT P6SM FEW020
     FM100000 35007KT P6SM SCT140
     FM101000 VRB02KT P6SM BKN120=

USA.gov is the U.S. government's official web portal to all federal, state and local government web resources and services.